Seastreak Manhattan — WCR8819 — position and weather

sailwx.info

Track history (hours):
 
Tides and Currents Weather Stations Pressure Air Temp Water Temp Dewpoint Dewpoint Depression Visibility Wind Speed Wind Dir Waves Ship Positions

Seastreak Manhattan

Owner: Hydrolines, Inc., Durham, NC. More information available from US FCC via Universal Licensing System and Coast Guard Vessel Documentation Center.

Last reported at 2017-Sep-21 14:35 UTC. Time now 2017-Nov-19 18:19 UTC.
Position N 42°23' W 071°03'.
Warning: this ship's position is 59 days out of date.

Type: Passenger vessel. MMSI: 367031230.

Date/timePositionNaut miles runAvg speedWind from/ knotsBaromVisibWave heightAir tempDewpointWater temp
2017-Sep-21 14:35N 42°23' W 071°03'  
2017-Sep-18 16:22N 42°23' W 071°03'0 0.0
2017-Sep-18 15:59N 42°23' W 071°03'0 0.0
2017-Sep-18 15:28N 42°23' W 071°03'0 0.0
2017-Sep-17 20:38N 42°23' W 071°03'0 0.8
2017-Sep-17 20:30N 42°23' W 071°03'2 3.4
2017-Sep-17 20:01N 42°21' W 071°02'917.5
2017-Sep-17 19:30N 42°26' W 070°52'5 7.8
2017-Sep-17 18:49N 42°31' W 070°53'3 9.6
2017-Sep-17 18:30N 42°30' W 070°49'1121.7
2017-Sep-17 18:01N 42°20' W 070°57'4 7.9
2017-Sep-17 17:30N 42°21' W 071°02'7 8.7
2017-Sep-17 16:41N 42°24' W 070°53'421.6
2017-Sep-17 16:29N 42°28' W 070°50'4 8.8
2017-Sep-17 16:00N 42°31' W 070°53'3 6.6
2017-Sep-17 15:31N 42°29' W 070°50'1210.1
2017-Sep-17 14:18N 42°22' W 071°03'1 2.0
2017-Sep-17 14:00N 42°22' W 071°02'1 2.4
2017-Sep-17 13:30N 42°23' W 071°03'0 0.3
2017-Sep-17 13:00N 42°23' W 071°03'0 0.0
2017-Sep-16 20:40N 42°23' W 071°03'0 0.0
2017-Sep-16 20:30N 42°23' W 071°03'1 2.5
2017-Sep-16 20:00N 42°22' W 071°03'917.2
2017-Sep-16 19:30N 42°25' W 070°52'610.5
2017-Sep-16 18:56N 42°31' W 070°53'0 0.0
2017-Sep-16 18:30N 42°31' W 070°53'613.0
2017-Sep-16 18:00N 42°25' W 070°53'816.4
2017-Sep-16 17:30N 42°22' W 071°03'0 0.0
2017-Sep-16 17:00N 42°22' W 071°03'917.5
2017-Sep-16 16:31N 42°25' W 070°52'610.4
2017-Sep-16 15:56N 42°31' W 070°53'0 0.1
2017-Sep-16 15:31N 42°31' W 070°53'815.2
2017-Sep-16 15:00N 42°24' W 070°53'714.6
2017-Sep-16 14:30N 42°22' W 071°03'0 0.2
2017-Sep-16 14:00N 42°22' W 071°03'1 1.1
2017-Sep-16 13:30N 42°22' W 071°02'  
Track history (hours):
 
Tides and Currents Weather Stations Pressure Air Temp Water Temp Dewpoint Dewpoint Depression Visibility Wind Speed Wind Dir Waves Ship Positions

Seastreak Manhattan

Owner: Hydrolines, Inc., Durham, NC. More information available from US FCC via Universal Licensing System and Coast Guard Vessel Documentation Center.

Last reported at 2017-Sep-21 14:35 UTC. Time now 2017-Nov-19 18:19 UTC.
Position N 42°23' W 071°03'.
Warning: this ship's position is 59 days out of date.

Type: Passenger vessel. MMSI: 367031230.

Date/timePositionNaut miles runAvg speedWind from/ knotsBaromVisibWave heightAir tempDewpointWater temp
2017-Sep-21 14:35N 42°23' W 071°03'  
2017-Sep-18 16:22N 42°23' W 071°03'0 0.0
2017-Sep-18 15:59N 42°23' W 071°03'0 0.0
2017-Sep-18 15:28N 42°23' W 071°03'0 0.0
2017-Sep-17 20:38N 42°23' W 071°03'0 0.8
2017-Sep-17 20:30N 42°23' W 071°03'2 3.4
2017-Sep-17 20:01N 42°21' W 071°02'917.5
2017-Sep-17 19:30N 42°26' W 070°52'5 7.8
2017-Sep-17 18:49N 42°31' W 070°53'3 9.6
2017-Sep-17 18:30N 42°30' W 070°49'1121.7
2017-Sep-17 18:01N 42°20' W 070°57'4 7.9
2017-Sep-17 17:30N 42°21' W 071°02'7 8.7
2017-Sep-17 16:41N 42°24' W 070°53'421.6
2017-Sep-17 16:29N 42°28' W 070°50'4 8.8
2017-Sep-17 16:00N 42°31' W 070°53'3 6.6
2017-Sep-17 15:31N 42°29' W 070°50'1210.1
2017-Sep-17 14:18N 42°22' W 071°03'1 2.0
2017-Sep-17 14:00N 42°22' W 071°02'1 2.4
2017-Sep-17 13:30N 42°23' W 071°03'0 0.3
2017-Sep-17 13:00N 42°23' W 071°03'0 0.0
2017-Sep-16 20:40N 42°23' W 071°03'0 0.0
2017-Sep-16 20:30N 42°23' W 071°03'1 2.5
2017-Sep-16 20:00N 42°22' W 071°03'917.2
2017-Sep-16 19:30N 42°25' W 070°52'610.5
2017-Sep-16 18:56N 42°31' W 070°53'0 0.0
2017-Sep-16 18:30N 42°31' W 070°53'613.0
2017-Sep-16 18:00N 42°25' W 070°53'816.4
2017-Sep-16 17:30N 42°22' W 071°03'0 0.0
2017-Sep-16 17:00N 42°22' W 071°03'917.5
2017-Sep-16 16:31N 42°25' W 070°52'610.4
2017-Sep-16 15:56N 42°31' W 070°53'0 0.1
2017-Sep-16 15:31N 42°31' W 070°53'815.2
2017-Sep-16 15:00N 42°24' W 070°53'714.6
2017-Sep-16 14:30N 42°22' W 071°03'0 0.2
2017-Sep-16 14:00N 42°22' W 071°03'1 1.1
2017-Sep-16 13:30N 42°22' W 071°02'  

Dump ship's entire track history